Micco, Florida
Current Conditions -  °F | °C
As of 4:53 PM on Saturday 20 Dec 2014 (Local Time) from KVRB Reporting Station
Clear Clear  
Wind Chill: 73°   Ceiling: Unl
Heat Index: 73°   Visibility: 10mi
Dew Point: 60°   Wind: 9mph
Humidity: 64%   Direction: 130°SE
Pressure: 30.06"   Gusts: NA
Location:  27.8606°N, 80.5442°W
Report Text: KVRB 202153Z AUTO 13008KT 10SM CLR 23/16 A3006 RMK AO2 SLP176 T02280156
Loading
Personal Weather Stations






























Interactive Weather Map New forecast layout! Learn more

10-Day Weather Forecast

Advertisements
Track Severe Weather on mobile